Time;durP1;ratioP1;P1;durP2;ratioP2;P2;SDS_P1;SDS_P2;PMS_P1;PMS_P2;Temp;Humidity;BMP_temperature;BMP_pressure;BME280_temperature;BME280_humidity;BME280_pressure;Samples;Min_cycle;Max_cycle;Signal;HPM_P1;HPM_P2
2021/06/16 00:02:15;;;;;;;28.52;15.32;;;;;;;19.20;77.54;99003.38;4895899;29;20526;-85
2021/06/16 00:04:42;;;;;;;33.67;17.10;;;;;;;19.27;77.21;99018.47;4896564;29;20056;-89
2021/06/16 00:07:08;;;;;;;27.07;12.30;;;;;;;19.35;75.71;99020.16;4896828;29;20410;-85
2021/06/16 00:09:35;;;;;;;23.35;14.52;;;;;;;19.40;76.48;99031.72;4891547;29;20048;-85
2021/06/16 00:12:02;;;;;;;23.88;14.05;;;;;;;19.37;76.05;99035.25;4895741;29;20046;-90
2021/06/16 00:14:29;;;;;;;21.65;12.20;;;;;;;19.36;74.74;99025.31;4883338;29;20040;-86
2021/06/16 00:16:55;;;;;;;26.85;13.75;;;;;;;19.26;75.14;99006.59;4883835;29;20048;-86
2021/06/16 00:19:21;;;;;;;23.60;12.97;;;;;;;19.21;75.28;99009.72;4900742;29;20056;-85
2021/06/16 00:21:47;;;;;;;23.80;12.40;;;;;;;18.83;74.97;98953.47;4895432;29;20045;-91
2021/06/16 00:24:18;;;;;;;19.00;12.00;;;;;;;19.30;73.86;99020.50;4900417;29;20047;-88
2021/06/16 00:26:46;;;;;;;17.25;9.65;;;;;;;19.38;72.52;99033.25;4883205;29;20044;-85
2021/06/16 00:29:13;;;;;;;16.83;9.57;;;;;;;19.34;72.93;99036.00;4900313;29;20112;-90
2021/06/16 00:31:40;;;;;;;13.90;9.32;;;;;;;19.19;72.42;99003.75;4897351;29;20048;-85
2021/06/16 00:34:06;;;;;;;14.77;10.30;;;;;;;19.21;72.37;98999.44;4897357;29;20040;-92
2021/06/16 00:36:32;;;;;;;18.50;9.20;;;;;;;19.44;72.61;99034.53;4900179;29;20100;-85
2021/06/16 00:38:59;;;;;;;16.03;9.40;;;;;;;19.18;72.21;99011.25;4889470;29;20198;-89
2021/06/16 00:41:27;;;;;;;13.77;9.48;;;;;;;19.32;72.58;99032.81;4881762;29;20085;-89
2021/06/16 00:43:53;;;;;;;;;;;;;;;19.36;72.00;99044.72;4882040;29;20527;-85
2021/06/16 00:46:20;;;;;;;12.98;8.48;;;;;;;19.26;71.16;99037.06;4881035;29;20022;-86
2021/06/16 00:48:46;;;;;;;13.30;8.40;;;;;;;19.17;71.17;99011.63;4881005;29;20519;-85
2021/06/16 00:51:13;;;;;;;14.50;8.32;;;;;;;19.16;71.04;99015.59;4881073;29;20056;-85
2021/06/16 00:53:39;;;;;;;13.23;8.00;;;;;;;19.11;71.18;99013.97;4882013;29;20108;-86
2021/06/16 00:56:06;;;;;;;;;;;;;;;19.28;71.01;99047.81;4881177;29;20049;-86
2021/06/16 00:58:32;;;;;;;13.15;7.88;;;;;;;19.13;71.20;99025.44;4880869;29;19930;-86
2021/06/16 01:01:17;;;;;;;;;;;;;;;19.25;70.69;99041.81;4881157;29;20048;-85
2021/06/16 01:04:08;;;;;;;15.40;7.07;;;;;;;19.28;70.03;99033.94;4881878;29;19923;-85
2021/06/16 01:06:58;;;;;;;10.50;7.70;;;;;;;19.28;69.95;99042.25;4880783;29;20045;-85
2021/06/16 01:09:28;;;;;;;12.38;7.35;;;;;;;19.22;69.89;99033.47;4881472;29;20052;-87
2021/06/16 01:11:59;;;;;;;10.90;7.30;;;;;;;19.14;69.69;99029.81;4880288;29;20575;-90
2021/06/16 01:14:50;;;;;;;13.38;7.78;;;;;;;19.15;70.35;99028.66;4895561;29;20076;-90
2021/06/16 01:17:40;;;;;;;17.23;7.93;;;;;;;19.21;70.03;99034.66;4899268;29;20047;-86
2021/06/16 01:20:16;;;;;;;12.15;7.75;;;;;;;19.18;69.93;99032.63;4899060;29;20044;-86
2021/06/16 01:22:50;;;;;;;9.73;7.38;;;;;;;19.15;69.78;99041.72;4897490;29;20044;-87
2021/06/16 01:25:30;;;;;;;9.23;7.65;;;;;;;19.15;70.07;99038.94;4898521;29;20056;-86
2021/06/16 01:27:58;;;;;;;17.35;7.80;;;;;;;18.90;69.89;98991.50;4898978;29;20112;-86
2021/06/16 01:30:25;;;;;;;11.75;7.88;;;;;;;19.07;70.12;99015.88;4899299;29;20143;-85
2021/06/16 01:32:53;;;;;;;11.95;7.68;;;;;;;19.18;69.85;99030.66;4894045;29;20131;-85
2021/06/16 01:35:19;;;;;;;17.50;8.32;;;;;;;19.17;70.25;99020.75;4880682;29;20048;-87
2021/06/16 01:37:47;;;;;;;10.75;8.27;;;;;;;18.93;69.87;98988.00;4881576;29;20037;-86
2021/06/16 01:40:13;;;;;;;27.83;8.82;;;;;;;19.23;70.25;99033.09;4881922;29;20056;-87
2021/06/16 01:42:41;;;;;;;11.45;7.22;;;;;;;19.20;69.82;99020.00;4898523;29;20036;-85
2021/06/16 01:45:08;;;;;;;13.25;7.93;;;;;;;19.34;69.20;99044.31;4894067;29;20037;-91
2021/06/16 01:47:36;;;;;;;11.18;7.57;;;;;;;19.27;69.44;99024.00;4901144;29;20048;-91
2021/06/16 01:50:04;;;;;;;15.60;7.80;;;;;;;19.28;69.60;99031.19;4897574;29;20579;-85
2021/06/16 01:52:33;;;;;;;14.75;7.68;;;;;;;19.25;69.41;99035.50;4897407;29;20080;-85
2021/06/16 01:55:00;;;;;;;9.13;7.20;;;;;;;19.14;69.48;99031.78;4897278;29;20131;-86
2021/06/16 01:57:28;;;;;;;13.85;8.27;;;;;;;19.19;69.21;99045.31;4898623;29;20048;-85
2021/06/16 01:59:59;;;;;;;10.88;7.72;;;;;;;19.21;69.51;99060.41;4892939;29;20453;-84
2021/06/16 02:02:26;;;;;;;13.15;7.25;;;;;;;19.05;69.67;99039.59;4878583;29;20041;-85
2021/06/16 02:04:52;;;;;;;12.05;7.72;;;;;;;19.14;69.74;99060.31;4847584;29;20523;-90
2021/06/16 02:07:24;;;;;;;13.68;8.18;;;;;;;18.95;70.08;99035.53;4897139;29;20071;-85
2021/06/16 02:09:52;;;;;;;13.93;8.23;;;;;;;18.61;70.08;98998.63;4898142;29;20052;-85
2021/06/16 02:12:19;;;;;;;13.02;8.20;;;;;;;18.80;70.41;99028.97;4899665;29;20068;-87
2021/06/16 02:14:55;;;;;;;20.40;9.07;;;;;;;18.78;70.70;99034.91;4898205;29;20076;-85
2021/06/16 02:17:22;;;;;;;;;;;;;;;19.01;70.58;99073.59;4898556;29;20431;-85
2021/06/16 02:19:49;;;;;;;13.60;8.40;;;;;;;18.83;71.07;99044.84;4898106;29;19927;-85
2021/06/16 02:22:16;;;;;;;14.18;8.43;;;;;;;18.95;71.31;99066.78;4893384;29;20041;-86
2021/06/16 02:24:45;;;;;;;10.30;8.25;;;;;;;18.99;71.47;99075.94;4900750;29;20049;-88
2021/06/16 02:27:12;;;;;;;11.18;9.10;;;;;;;18.74;71.97;99044.31;4910550;29;20086;-87
2021/06/16 02:29:39;;;;;;;19.27;9.48;;;;;;;18.84;71.79;99068.63;4898427;29;20048;-85
2021/06/16 02:32:05;;;;;;;20.70;9.20;;;;;;;18.75;71.77;99040.41;4895058;29;20044;-86
2021/06/16 02:34:32;;;;;;;12.77;9.35;;;;;;;19.01;72.05;99081.91;4894107;29;20045;-85
2021/06/16 02:37:01;;;;;;;18.10;9.77;;;;;;;18.94;71.99;99067.97;4905303;29;20048;-89
2021/06/16 02:39:39;;;;;;;18.48;9.20;;;;;;;18.91;72.26;99065.94;4894336;29;20071;-85
2021/06/16 02:42:08;;;;;;;14.05;9.32;;;;;;;18.98;72.15;99090.97;4914983;29;20059;-85
2021/06/16 02:44:35;;;;;;;14.68;9.25;;;;;;;18.89;72.59;99078.56;4916464;29;20514;-86
2021/06/16 02:47:05;;;;;;;17.02;9.32;;;;;;;18.88;71.78;99077.75;4888054;29;20571;-85
2021/06/16 02:52:09;;;;;;;13.32;9.80;;;;;;;19.05;72.68;99106.09;4916198;29;20043;-86
2021/06/16 02:54:39;;;;;;;16.73;9.48;;;;;;;19.07;72.71;99107.28;4916177;29;20068;-86
2021/06/16 02:59:38;;;;;;;25.98;9.93;;;;;;;19.10;71.57;99094.66;4912512;29;20490;-88
2021/06/16 03:02:05;;;;;;;17.00;7.80;;;;;;;19.12;70.93;99078.47;4892004;29;20052;-86
2021/06/16 03:04:33;;;;;;;14.57;7.80;;;;;;;19.29;69.29;99102.03;4899950;29;20049;-85
2021/06/16 03:07:00;;;;;;;15.45;8.20;;;;;;;19.45;69.85;99124.81;4905086;29;20071;-91
2021/06/16 03:09:29;;;;;;;14.57;7.45;;;;;;;19.37;69.52;99115.63;4894727;29;20169;-86
2021/06/16 03:11:58;;;;;;;11.95;7.80;;;;;;;19.26;69.66;99106.38;4893840;29;20131;-86
2021/06/16 03:14:25;;;;;;;11.63;6.82;;;;;;;19.36;68.80;99122.31;4898915;29;20405;-87
2021/06/16 03:16:52;;;;;;;;;;;;;;;19.32;69.06;99129.00;4895854;29;20467;-90
2021/06/16 03:19:20;;;;;;;10.13;6.78;;;;;;;19.18;69.16;99129.63;4900739;29;20383;-88
2021/06/16 03:21:47;;;;;;;11.02;7.47;;;;;;;19.15;68.92;99120.09;4907976;29;20048;-86
2021/06/16 03:24:16;;;;;;;13.23;6.63;;;;;;;18.89;69.35;99098.75;4902659;29;20121;-87
2021/06/16 03:26:43;;;;;;;13.23;6.57;;;;;;;18.86;68.37;99085.63;4896588;29;20538;-87
2021/06/16 03:29:11;;;;;;;11.02;6.55;;;;;;;18.90;68.80;99096.75;4896175;29;20426;-91
2021/06/16 03:31:39;;;;;;;;;;;;;;;19.07;68.08;99131.44;4909208;29;20044;-90
2021/06/16 03:34:05;;;;;;;12.25;6.13;;;;;;;18.98;68.69;99115.91;4910380;29;19923;-86
2021/06/16 03:36:32;;;;;;;9.47;6.13;;;;;;;18.69;68.33;99080.63;4900734;29;20455;-88
2021/06/16 03:38:58;;;;;;;9.18;6.13;;;;;;;18.71;69.00;99094.91;4910162;29;20423;-85
2021/06/16 03:41:25;;;;;;;14.65;6.45;;;;;;;18.78;68.54;99095.81;4904361;29;20055;-87
2021/06/16 03:43:52;;;;;;;8.73;6.20;;;;;;;18.75;68.55;99085.50;4898944;29;20048;-86
2021/06/16 03:46:20;;;;;;;12.30;6.38;;;;;;;18.91;67.49;99107.50;4892070;29;20037;-92
2021/06/16 03:48:51;;;;;;;8.93;5.65;;;;;;;19.11;68.42;99141.41;4904429;29;20055;-86
2021/06/16 03:51:18;;;;;;;9.57;6.20;;;;;;;19.18;68.02;99135.16;4901831;29;20040;-86
2021/06/16 03:53:44;;;;;;;;;;;;;;;19.23;67.96;99132.06;4893487;29;20060;-88
2021/06/16 03:56:12;;;;;;;11.48;5.72;;;;;;;19.21;67.33;99121.34;4906855;29;19928;-86
2021/06/16 03:58:40;;;;;;;11.93;6.05;;;;;;;19.23;66.61;99130.06;4896354;29;20076;-86
2021/06/16 04:01:11;;;;;;;15.43;5.55;;;;;;;19.29;67.67;99135.31;4911367;29;20161;-87
2021/06/16 04:04:07;;;;;;;15.90;6.20;;;;;;;19.44;66.27;99146.22;4914627;29;20040;-91
2021/06/16 04:06:45;;;;;;;16.17;5.10;;;;;;;19.34;66.04;99133.00;4915522;29;20470;-87
2021/06/16 04:09:12;;;;;;;8.60;4.70;;;;;;;19.47;64.95;99139.91;4914917;29;20044;-86
2021/06/16 04:11:39;;;;;;;9.23;5.10;;;;;;;19.20;65.28;99105.91;4905620;29;20131;-86
2021/06/16 04:14:06;;;;;;;8.15;4.30;;;;;;;19.58;65.12;99162.22;4895159;29;20152;-86
2021/06/16 04:16:32;;;;;;;10.83;4.87;;;;;;;19.54;64.90;99141.19;4896411;29;20080;-86
2021/06/16 04:18:58;;;;;;;9.82;4.22;;;;;;;19.59;64.13;99147.16;4896459;29;20048;-84
2021/06/16 04:21:24;;;;;;;9.83;4.30;;;;;;;19.67;64.01;99148.91;4896415;29;20088;-85
2021/06/16 04:23:51;;;;;;;14.23;4.65;;;;;;;19.82;63.53;99160.94;4896429;29;20044;-86
2021/06/16 04:26:19;;;;;;;7.82;4.25;;;;;;;19.59;64.08;99122.22;4896500;29;20507;-88
2021/06/16 04:28:46;;;;;;;12.05;4.47;;;;;;;19.66;63.15;99141.72;4896148;29;20056;-89
2021/06/16 04:31:12;;;;;;;7.95;4.10;;;;;;;19.83;63.22;99167.28;4900053;29;20189;-88
2021/06/16 04:33:39;;;;;;;13.52;4.32;;;;;;;19.85;63.37;99153.84;4909371;29;20048;-88
2021/06/16 04:38:35;;;;;;;13.48;3.83;;;;;;;20.02;62.45;99166.31;4896317;29;20048;-86
2021/06/16 04:41:05;;;;;;;21.20;4.57;;;;;;;19.86;63.27;99139.59;4896440;29;20056;-88
2021/06/16 04:43:32;;;;;;;13.30;3.92;;;;;;;20.09;62.73;99158.06;4895956;29;20040;-88
2021/06/16 04:46:00;;;;;;;20.88;4.47;;;;;;;19.82;62.55;99122.09;4895229;29;20051;-88
2021/06/16 04:48:26;;;;;;;20.50;4.20;;;;;;;19.98;61.60;99134.97;4879496;29;20147;-86
2021/06/16 04:50:53;;;;;;;9.38;3.40;;;;;;;20.14;60.11;99171.59;4895452;29;20305;-81
2021/06/16 04:53:19;;;;;;;7.88;4.18;;;;;;;19.99;62.90;99147.66;4896654;29;20450;-87
2021/06/16 04:55:47;;;;;;;15.65;4.35;;;;;;;20.31;61.91;99179.31;4879851;29;20052;-84
2021/06/16 04:58:13;;;;;;;10.82;4.15;;;;;;;20.11;61.34;99156.50;4896039;29;20617;-86
2021/06/16 05:00:40;;;;;;;10.32;4.28;;;;;;;20.26;62.41;99181.63;4899975;29;20138;-85
2021/06/16 05:03:06;;;;;;;8.20;3.95;;;;;;;20.18;62.06;99172.44;4901127;29;20131;-94
2021/06/16 05:05:32;;;;;;;12.00;3.95;;;;;;;20.31;61.35;99193.19;4901674;29;20048;-96
2021/06/16 05:08:01;;;;;;;9.10;4.00;;;;;;;20.09;60.76;99167.19;4915150;29;20490;-96
2021/06/16 05:10:29;;;;;;;12.30;3.72;;;;;;;20.17;61.62;99174.41;4922702;29;20589;-85
2021/06/16 05:12:56;;;;;;;9.07;3.90;;;;;;;20.36;60.56;99208.69;4916411;29;20076;-92
2021/06/16 05:15:30;;;;;;;15.23;3.90;;;;;;;20.09;61.64;99158.84;4932266;29;20075;-93
2021/06/16 05:17:57;;;;;;;9.82;3.80;;;;;;;20.34;61.98;99184.09;4914552;29;20072;-94
2021/06/16 05:20:25;;;;;;;13.52;3.83;;;;;;;20.47;59.87;99206.03;4903367;29;20419;-84
2021/06/16 05:22:51;;;;;;;;;;;;;;;20.52;61.42;99214.03;4868426;29;20092;-95
2021/06/16 05:25:18;;;;;;;12.30;4.40;;;;;;;20.52;61.33;99211.25;4900312;29;19927;-83
2021/06/16 05:27:44;;;;;;;25.67;4.70;;;;;;;20.51;62.27;99196.59;4899319;29;20064;-87
2021/06/16 05:30:12;;;;;;;43.72;6.75;;;;;;;20.68;60.66;99209.03;4899360;29;20072;-86
2021/06/16 05:32:38;;;;;;;8.70;3.72;;;;;;;20.71;60.63;99205.50;4899409;29;20060;-92
2021/06/16 05:35:06;;;;;;;31.88;5.18;;;;;;;20.67;60.12;99218.56;4899034;29;20047;-87
2021/06/16 05:37:32;;;;;;;8.68;3.30;;;;;;;20.62;60.26;99213.34;4898206;29;20045;-84
2021/06/16 05:39:58;;;;;;;6.75;3.78;;;;;;;20.50;60.49;99202.50;4898310;29;20514;-85
2021/06/16 05:42:28;;;;;;;18.05;3.80;;;;;;;20.61;60.49;99208.97;4897674;29;20041;-84
2021/06/16 05:44:54;;;;;;;12.90;4.10;;;;;;;20.70;59.86;99209.47;4897816;29;20103;-93
2021/06/16 05:47:20;;;;;;;8.30;3.57;;;;;;;20.67;59.19;99210.22;4897226;29;20791;-94
2021/06/16 05:49:46;;;;;;;17.17;4.13;;;;;;;20.83;59.52;99219.09;4897346;29;20100;-84
2021/06/16 05:52:12;;;;;;;7.93;3.77;;;;;;;20.78;59.15;99208.31;4896668;29;20297;-90
2021/06/16 05:54:38;;;;;;;6.00;3.27;;;;;;;20.98;59.28;99235.88;4902625;29;20300;-84
2021/06/16 05:57:05;;;;;;;5.63;3.13;;;;;;;20.90;60.30;99214.78;4878517;29;20456;-86
2021/06/16 05:59:32;;;;;;;17.10;3.97;;;;;;;21.06;58.90;99209.75;4865812;29;20059;-94
2021/06/16 06:02:00;;;;;;;10.63;3.75;;;;;;;21.11;57.99;99240.75;4885189;29;20045;-85
2021/06/16 06:04:26;;;;;;;8.05;3.58;;;;;;;20.94;58.62;99210.84;4905067;29;20044;-82
2021/06/16 06:06:52;;;;;;;12.43;3.92;;;;;;;21.25;58.73;99233.69;4902726;29;20138;-81
2021/06/16 06:09:19;;;;;;;12.73;3.73;;;;;;;21.23;58.89;99228.53;4904797;29;20049;-93
2021/06/16 06:11:46;;;;;;;9.90;3.22;;;;;;;21.23;57.24;99214.63;4911688;29;20055;-86
2021/06/16 06:14:12;;;;;;;7.38;3.28;;;;;;;21.41;58.23;99237.00;4900224;29;20040;-82
2021/06/16 06:16:38;;;;;;;11.00;3.37;;;;;;;21.45;56.36;99251.72;4907604;29;20040;-91
2021/06/16 06:19:04;;;;;;;14.77;3.30;;;;;;;21.44;57.52;99246.56;4914935;29;20147;-82
2021/06/16 06:21:32;;;;;;;8.65;3.00;;;;;;;21.35;56.98;99242.13;4914494;29;20090;-83
2021/06/16 06:24:02;;;;;;;8.45;3.10;;;;;;;21.43;57.09;99251.34;4905864;29;20566;-87
2021/06/16 06:26:28;;;;;;;13.52;3.13;;;;;;;21.60;57.83;99255.41;4909080;29;20036;-82
2021/06/16 06:28:54;;;;;;;11.70;2.83;;;;;;;21.45;56.33;99250.94;4901599;29;20422;-82
2021/06/16 06:31:22;;;;;;;14.73;3.17;;;;;;;21.54;57.24;99265.28;4898944;29;20036;-82
2021/06/16 06:33:48;;;;;;;12.60;3.00;;;;;;;21.59;57.77;99259.38;4912899;29;20051;-82
2021/06/16 06:36:14;;;;;;;10.47;3.00;;;;;;;21.69;56.60;99266.97;4903533;29;20040;-82
2021/06/16 06:38:40;;;;;;;8.82;3.15;;;;;;;21.78;55.52;99264.63;4908766;29;20809;-85
2021/06/16 06:41:06;;;;;;;8.10;3.08;;;;;;;21.75;55.80;99265.41;4903333;29;20040;-81
2021/06/16 06:43:32;;;;;;;18.63;3.80;;;;;;;21.76;56.35;99260.66;4903956;29;20044;-83
2021/06/16 06:45:58;;;;;;;23.73;3.70;;;;;;;21.84;54.10;99267.06;4905190;29;20045;-81
2021/06/16 06:48:25;;;;;;;;;;;;;;;21.83;54.78;99285.75;4907400;29;20051;-81
2021/06/16 06:50:53;;;;;;;15.50;3.03;;;;;;;21.68;55.02;99284.84;4900150;29;19927;-94
2021/06/16 06:53:21;;;;;;;12.13;3.25;;;;;;;21.56;53.96;99271.28;4907205;29;20081;-96
2021/06/16 06:55:51;;;;;;;14.25;3.20;;;;;;;21.69;55.86;99282.84;4898145;29;20104;-83
2021/06/16 06:58:17;;;;;;;11.05;3.20;;;;;;;21.78;55.46;99288.88;4906214;29;20414;-95
2021/06/16 07:00:44;;;;;;;12.25;2.95;;;;;;;21.86;55.29;99292.50;4899753;29;20048;-90
2021/06/16 07:03:11;;;;;;;7.57;3.27;;;;;;;21.83;56.26;99273.81;4899080;29;20161;-90
2021/06/16 07:05:43;;;;;;;13.75;3.67;;;;;;;22.04;55.66;99282.25;4899623;29;20049;-90
2021/06/16 07:08:10;;;;;;;9.88;3.50;;;;;;;22.11;54.89;99303.75;4900777;29;20044;-87
2021/06/16 07:10:36;;;;;;;9.73;4.03;;;;;;;22.01;54.47;99285.81;4906417;29;20514;-81
2021/06/16 07:13:03;;;;;;;10.50;3.20;;;;;;;22.02;54.81;99293.78;4902129;29;20459;-83
2021/06/16 07:15:31;;;;;;;10.55;3.65;;;;;;;21.74;55.10;99283.28;4903434;29;20044;-81
2021/06/16 07:17:58;;;;;;;10.35;3.33;;;;;;;22.03;56.21;99297.38;4892803;29;20412;-81
2021/06/16 07:20:24;;;;;;;8.35;3.17;;;;;;;22.18;53.56;99295.47;4892836;29;20052;-82
2021/06/16 07:22:51;;;;;;;10.70;3.47;;;;;;;22.16;54.11;99298.66;4902265;29;20051;-83
2021/06/16 07:25:18;;;;;;;15.00;4.20;;;;;;;22.41;53.30;99300.72;4904721;29;20045;-80
2021/06/16 07:27:45;;;;;;;28.25;6.00;;;;;;;22.77;52.23;99290.44;4899828;29;20076;-95
2021/06/16 07:30:15;;;;;;;8.00;3.50;;;;;;;22.83;52.36;99293.66;4878910;29;20042;-89
2021/06/16 07:32:41;;;;;;;14.45;3.72;;;;;;;22.92;52.04;99296.84;4896600;29;20036;-81
2021/06/16 07:35:08;;;;;;;9.48;4.72;;;;;;;23.07;51.50;99301.25;4896527;29;20067;-82
2021/06/16 07:37:36;;;;;;;23.08;3.78;;;;;;;23.05;51.46;99306.47;4900368;29;20135;-82
2021/06/16 07:40:04;;;;;;;8.90;3.50;;;;;;;23.07;51.51;99309.63;4901245;29;20048;-84
2021/06/16 07:42:30;;;;;;;10.95;3.38;;;;;;;22.71;50.61;99317.94;4897120;29;20040;-80
2021/06/16 07:44:56;;;;;;;12.35;3.53;;;;;;;22.45;52.13;99309.88;4891153;29;20151;-80
2021/06/16 07:47:22;;;;;;;23.57;3.47;;;;;;;22.49;52.01;99313.50;4894905;29;20109;-81
2021/06/16 07:49:50;;;;;;;11.32;3.10;;;;;;;22.67;52.08;99319.09;4889332;29;20119;-80
2021/06/16 07:52:16;;;;;;;7.65;3.22;;;;;;;22.70;51.54;99321.88;4895839;29;20047;-80
2021/06/16 07:54:42;;;;;;;15.02;3.75;;;;;;;22.63;51.00;99321.09;4898466;29;20045;-91
2021/06/16 07:57:09;;;;;;;6.43;3.42;;;;;;;22.49;50.62;99316.28;4904927;29;20502;-81
2021/06/16 07:59:34;;;;;;;13.52;3.88;;;;;;;22.41;50.71;99312.66;4897967;29;20044;-81
2021/06/16 08:02:00;;;;;;;5.65;3.13;;;;;;;22.42;50.86;99327.41;4893726;29;20127;-89
2021/06/16 08:04:28;;;;;;;8.03;3.47;;;;;;;22.37;51.02;99305.47;4883827;29;20103;-84
2021/06/16 08:06:56;;;;;;;10.23;3.20;;;;;;;22.59;50.68;99323.06;4901461;29;20044;-94
2021/06/16 08:09:22;;;;;;;6.25;3.15;;;;;;;22.64;49.95;99331.03;4897392;29;20049;-95
2021/06/16 08:11:49;;;;;;;5.83;2.90;;;;;;;22.50;48.69;99310.28;4886483;29;20036;-90
2021/06/16 08:14:16;;;;;;;7.40;2.60;;;;;;;22.63;47.24;99333.03;4904987;29;20300;-87
2021/06/16 08:16:42;;;;;;;17.15;3.03;;;;;;;22.55;45.90;99320.28;4912571;29;20511;-89
2021/06/16 08:19:08;;;;;;;15.52;3.08;;;;;;;22.67;47.25;99335.81;4911453;29;20043;-93
2021/06/16 08:21:34;;;;;;;10.20;2.90;;;;;;;22.73;46.35;99329.47;4900538;29;20047;-93
2021/06/16 08:24:00;;;;;;;15.93;2.72;;;;;;;22.85;46.40;99341.44;4903212;29;20044;-94
2021/06/16 08:26:26;;;;;;;9.88;3.00;;;;;;;22.84;47.04;99349.00;4902319;29;20052;-95
2021/06/16 08:28:51;;;;;;;9.47;4.23;;;;;;;22.63;46.06;99319.09;4908002;29;20052;-84
2021/06/16 08:31:18;;;;;;;16.23;3.30;;;;;;;22.94;47.34;99347.44;4905853;29;20040;-87
2021/06/16 08:33:44;;;;;;;16.10;3.17;;;;;;;23.16;46.79;99348.28;4906801;29;20415;-85
2021/06/16 08:36:11;;;;;;;16.88;3.67;;;;;;;23.23;45.77;99330.75;4915113;29;20071;-92
2021/06/16 08:38:37;;;;;;;9.93;3.22;;;;;;;23.30;44.76;99351.06;4903469;29;20040;-87
2021/06/16 08:41:07;;;;;;;7.57;3.28;;;;;;;23.38;45.36;99352.69;4915784;29;20130;-88
2021/06/16 08:43:38;;;;;;;7.53;3.25;;;;;;;23.55;45.92;99356.66;4922822;29;20510;-90
2021/06/16 08:46:07;;;;;;;8.05;3.97;;;;;;;23.82;45.61;99356.25;4917875;29;20040;-86
2021/06/16 08:48:34;;;;;;;11.18;3.63;;;;;;;23.49;44.75;99349.88;4904659;29;20051;-87
2021/06/16 08:51:00;;;;;;;9.90;3.50;;;;;;;23.38;44.69;99349.88;4904927;29;20048;-85
2021/06/16 08:53:27;;;;;;;12.50;3.55;;;;;;;23.00;45.68;99331.94;4905394;29;20513;-85
2021/06/16 08:55:53;;;;;;;10.27;3.17;;;;;;;22.92;46.17;99339.47;4907489;29;20049;-85
2021/06/16 08:58:19;;;;;;;15.83;4.00;;;;;;;22.89;47.16;99368.13;4902810;29;20053;-86
2021/06/16 09:00:45;;;;;;;19.05;3.28;;;;;;;22.39;47.00;99356.81;4901321;29;20041;-83
2021/06/16 09:03:11;;;;;;;11.07;3.10;;;;;;;22.24;47.86;99367.09;4911731;29;20127;-86
2021/06/16 09:05:41;;;;;;;8.15;3.13;;;;;;;22.15;47.59;99386.16;4888692;29;20072;-86
2021/06/16 09:08:22;;;;;;;13.18;2.97;;;;;;;22.35;48.00;99395.00;4915503;29;20134;-86
2021/06/16 09:10:57;;;;;;;14.43;3.65;;;;;;;22.34;47.17;99375.88;4897889;29;20048;-89
2021/06/16 09:13:24;;;;;;;23.35;3.70;;;;;;;22.66;47.07;99398.31;4894926;29;20506;-84
2021/06/16 09:15:50;;;;;;;9.75;3.10;;;;;;;22.63;45.95;99394.31;4901258;29;20036;-87
2021/06/16 09:18:16;;;;;;;9.05;3.42;;;;;;;22.44;45.85;99391.84;4898395;29;20045;-92
2021/06/16 09:20:47;;;;;;;9.63;3.85;;;;;;;22.58;48.38;99403.03;4899602;29;20045;-87
2021/06/16 09:23:20;;;;;;;6.80;3.00;;;;;;;22.54;46.86;99398.66;4898251;29;20100;-85
2021/06/16 09:26:22;;;;;;;19.50;3.72;;;;;;;22.55;46.11;99401.06;4899626;29;20045;-87
2021/06/16 09:28:51;;;;;;;7.43;3.33;;;;;;;22.40;46.02;99394.63;4859847;29;20101;-85
2021/06/16 09:31:19;;;;;;;15.52;3.65;;;;;;;22.47;46.41;99407.78;4883826;29;20045;-91
2021/06/16 09:33:48;;;;;;;29.17;4.20;;;;;;;22.61;46.87;99398.69;4902363;29;20104;-95
2021/06/16 09:36:23;;;;;;;11.60;3.30;;;;;;;22.86;46.05;99401.56;4904104;29;20058;-84
2021/06/16 09:38:51;;;;;;;10.05;3.42;;;;;;;23.02;44.41;99404.03;4904508;29;20076;-84
2021/06/16 09:41:23;;;;;;;20.45;3.60;;;;;;;23.11;46.75;99399.69;4898944;29;20045;-85
2021/06/16 09:43:56;;;;;;;9.77;3.90;;;;;;;22.96;45.09;99376.53;4899280;29;20079;-93
2021/06/16 09:46:23;;;;;;;9.27;3.92;;;;;;;23.00;44.97;99415.56;4898176;29;20053;-87
2021/06/16 09:48:49;;;;;;;8.02;3.33;;;;;;;22.93;45.24;99399.63;4901492;29;20086;-84
2021/06/16 09:51:25;;;;;;;13.00;3.60;;;;;;;23.01;45.68;99431.09;4901401;29;20420;-84
2021/06/16 09:54:18;;;;;;;14.23;3.85;;;;;;;22.93;45.83;99427.50;4911386;29;20040;-85
2021/06/16 09:56:45;;;;;;;17.58;4.22;;;;;;;22.87;45.99;99422.66;4897368;29;20421;-88
2021/06/16 09:59:13;;;;;;;17.67;4.38;;;;;;;22.82;44.89;99429.44;4898974;29;20075;-85
2021/06/16 10:01:55;;;;;;;15.15;3.80;;;;;;;23.25;45.57;99424.00;4897472;29;20452;-84
2021/06/16 10:04:41;;;;;;;11.98;3.38;;;;;;;23.67;43.75;99434.41;4899011;29;20050;-83
2021/06/16 10:07:25;;;;;;;10.02;3.47;;;;;;;23.47;42.79;99419.22;4882825;29;20045;-82
2021/06/16 10:09:53;;;;;;;22.30;3.63;;;;;;;23.20;42.50;99408.44;4879495;29;20071;-81
2021/06/16 10:12:21;;;;;;;11.63;3.08;;;;;;;23.13;43.05;99435.53;4879613;29;20052;-84
2021/06/16 10:14:50;;;;;;;14.02;3.33;;;;;;;22.97;42.01;99433.88;4879831;29;20076;-85
2021/06/16 10:17:16;;;;;;;7.82;3.55;;;;;;;23.14;41.20;99437.91;4888841;29;20165;-78
2021/06/16 10:19:44;;;;;;;5.70;2.72;;;;;;;23.20;42.65;99425.16;4909261;29;20055;-79
2021/06/16 10:22:11;;;;;;;9.38;2.83;;;;;;;23.33;41.92;99425.59;4896039;29;20047;-78
2021/06/16 10:24:38;;;;;;;8.40;2.92;;;;;;;23.45;40.39;99422.44;4905139;29;20036;-79
2021/06/16 10:27:08;;;;;;;10.50;2.90;;;;;;;23.48;41.70;99420.03;4916565;29;20040;-79
2021/06/16 10:29:40;;;;;;;6.93;2.53;;;;;;;23.62;39.86;99442.38;4898947;29;20062;-79
2021/06/16 10:32:08;;;;;;;14.38;2.80;;;;;;;23.71;39.08;99447.56;4896848;29;20048;-76
2021/06/16 10:34:53;;;;;;;12.65;2.80;;;;;;;23.51;37.82;99444.34;4898798;29;20532;-76
2021/06/16 10:37:33;;;;;;;19.42;3.00;;;;;;;23.38;37.10;99463.47;4897503;29;20099;-91
2021/06/16 10:40:18;;;;;;;8.32;2.40;;;;;;;23.36;37.20;99449.91;4913015;29;20044;-80
2021/06/16 10:43:02;;;;;;;3.05;2.20;;;;;;;23.53;37.14;99447.53;4897500;29;20052;-80
2021/06/16 10:45:36;;;;;;;6.50;2.50;;;;;;;23.48;37.43;99448.75;4901580;29;20074;-78
2021/06/16 10:48:07;;;;;;;11.80;2.70;;;;;;;23.73;36.36;99447.97;4916674;29;20127;-79
2021/06/16 10:50:50;;;;;;;10.23;2.53;;;;;;;23.57;35.74;99456.72;4911139;29;20048;-82
2021/06/16 10:53:20;;;;;;;18.98;3.15;;;;;;;23.52;35.87;99459.91;4897621;29;20105;-83
2021/06/16 10:55:55;;;;;;;15.20;2.78;;;;;;;23.52;35.06;99459.91;4898320;29;20048;-81
2021/06/16 10:58:32;;;;;;;7.88;2.35;;;;;;;23.07;34.93;99456.63;4898012;29;20040;-88
2021/06/16 11:01:19;;;;;;;6.60;2.28;;;;;;;23.35;35.66;99458.69;4897593;29;20147;-82
2021/06/16 11:03:51;;;;;;;23.50;3.63;;;;;;;23.59;36.30;99463.50;4897700;29;20124;-80
2021/06/16 11:06:33;;;;;;;18.30;3.22;;;;;;;23.85;38.16;99445.59;4896328;29;20104;-81
2021/06/16 11:09:14;;;;;;;7.53;2.58;;;;;;;23.89;35.63;99459.53;4896989;29;20055;-89
2021/06/16 11:11:49;;;;;;;9.02;2.35;;;;;;;23.62;36.23;99467.50;4897487;29;20064;-81
2021/06/16 11:14:33;;;;;;;10.38;2.60;;;;;;;23.58;35.91;99464.69;4898112;29;20511;-82
2021/06/16 11:17:09;;;;;;;14.20;2.90;;;;;;;23.55;35.81;99457.13;4897238;29;20124;-82
2021/06/16 11:19:35;;;;;;;11.40;3.00;;;;;;;23.72;36.53;99468.72;4898257;29;20051;-80
2021/06/16 11:22:25;;;;;;;17.93;3.00;;;;;;;23.72;36.08;99463.94;4897576;29;20044;-92
2021/06/16 11:25:10;;;;;;;19.05;3.03;;;;;;;23.65;36.22;99472.28;4897254;29;20040;-81
2021/06/16 11:27:56;;;;;;;5.47;2.13;;;;;;;23.82;34.61;99459.56;4896901;29;20403;-81
2021/06/16 11:30:40;;;;;;;6.13;2.08;;;;;;;23.72;32.85;99458.34;4896192;29;20048;-81
2021/06/16 11:33:15;;;;;;;16.92;2.63;;;;;;;23.70;34.48;99460.72;4897241;29;20052;-90
2021/06/16 11:35:44;;;;;;;6.70;2.70;;;;;;;23.89;33.72;99463.13;4897709;29;20052;-89
2021/06/16 11:38:22;;;;;;;7.35;2.50;;;;;;;23.82;33.09;99457.56;4896194;29;20091;-92
2021/06/16 11:41:03;;;;;;;10.63;2.75;;;;;;;23.94;32.79;99458.34;4878114;29;20055;-79
2021/06/16 11:43:41;;;;;;;12.75;2.55;;;;;;;24.15;33.15;99450.75;4878079;29;20060;-79
2021/06/16 11:46:16;;;;;;;13.05;2.25;;;;;;;24.09;30.17;99466.31;4878137;29;20048;-80
2021/06/16 11:48:45;;;;;;;11.82;3.15;;;;;;;24.13;31.25;99455.13;4890923;29;20056;-79